createdAt,value
2022-08-02T00:00:08.313Z,19.60
2022-08-02T00:02:34.780Z,19.60
2022-08-02T00:05:01.215Z,19.60
2022-08-02T00:07:27.646Z,19.60
2022-08-02T00:09:54.091Z,19.60
2022-08-02T00:12:20.523Z,19.60
2022-08-02T00:14:46.984Z,19.60
2022-08-02T00:17:13.427Z,19.60
2022-08-02T00:19:39.889Z,19.60
2022-08-02T00:22:06.322Z,19.60
2022-08-02T00:24:32.794Z,19.60
2022-08-02T00:26:59.244Z,19.60
2022-08-02T00:29:25.714Z,19.60
2022-08-02T00:31:52.143Z,19.50
2022-08-02T00:34:29.360Z,19.60
2022-08-02T00:36:58.391Z,18.20
2022-08-02T00:39:33.926Z,19.60
2022-08-02T00:42:01.891Z,19.60
2022-08-02T00:44:28.417Z,19.60
2022-08-02T00:46:54.851Z,19.50
2022-08-02T00:49:21.531Z,19.50
2022-08-02T00:51:48.028Z,19.50
2022-08-02T00:54:14.467Z,19.50
2022-08-02T00:56:40.932Z,19.50
2022-08-02T00:59:16.390Z,19.50
2022-08-02T01:01:56.300Z,19.60
2022-08-02T01:04:30.520Z,19.20
2022-08-02T01:06:58.403Z,19.50
2022-08-02T01:09:24.843Z,19.50
2022-08-02T01:11:51.313Z,19.50
2022-08-02T01:14:17.770Z,19.50
2022-08-02T01:16:44.214Z,19.50
2022-08-02T01:19:15.963Z,19.50
2022-08-02T01:21:42.684Z,19.50
2022-08-02T01:24:09.354Z,19.50
2022-08-02T01:26:35.875Z,19.50
2022-08-02T01:29:02.309Z,19.50
2022-08-02T01:31:28.846Z,19.50
2022-08-02T01:33:55.286Z,19.50
2022-08-02T01:36:21.729Z,19.50
2022-08-02T01:38:48.228Z,19.50
2022-08-02T01:41:14.683Z,19.50
2022-08-02T01:43:41.134Z,19.50
2022-08-02T01:46:07.598Z,19.40
2022-08-02T01:48:34.050Z,19.40
2022-08-02T01:51:00.536Z,19.40
2022-08-02T01:53:26.994Z,19.40
2022-08-02T01:55:57.917Z,19.40
2022-08-02T01:58:25.112Z,19.40
2022-08-02T02:00:51.660Z,19.30
2022-08-02T02:03:18.187Z,19.30
2022-08-02T02:05:44.650Z,18.90
2022-08-02T02:08:11.085Z,19.30
2022-08-02T02:10:37.570Z,19.30
2022-08-02T02:13:03.995Z,19.30
2022-08-02T02:15:30.465Z,19.30
2022-08-02T02:18:12.777Z,19.30
2022-08-02T02:20:40.151Z,19.20
2022-08-02T02:23:06.627Z,19.20
2022-08-02T02:25:36.530Z,19.20
2022-08-02T02:28:08.119Z,19.20
2022-08-02T02:30:34.588Z,19.30
2022-08-02T02:33:01.072Z,19.30
2022-08-02T02:35:27.540Z,19.30
2022-08-02T02:37:54.005Z,19.50
2022-08-02T02:40:20.451Z,19.30
2022-08-02T02:42:49.397Z,19.30
2022-08-02T02:45:16.057Z,19.30
2022-08-02T02:47:42.509Z,19.30
2022-08-02T02:50:08.947Z,19.30
2022-08-02T02:52:35.455Z,19.30
2022-08-02T02:55:01.927Z,19.30
2022-08-02T02:57:28.392Z,19.30
2022-08-02T02:59:54.828Z,19.20
2022-08-02T03:02:22.360Z,19.20
2022-08-02T03:04:55.580Z,19.20
2022-08-02T03:07:23.040Z,19.20
2022-08-02T03:09:54.249Z,19.10
2022-08-02T03:12:21.141Z,19.10
2022-08-02T03:14:49.308Z,19.10
2022-08-02T03:17:16.055Z,19.10
2022-08-02T03:19:42.515Z,19.20
2022-08-02T03:22:09.203Z,19.10
2022-08-02T03:24:35.810Z,19.20
2022-08-02T03:27:02.269Z,19.20
2022-08-02T03:29:31.502Z,19.20
2022-08-02T03:32:01.029Z,19.20
2022-08-02T03:34:27.528Z,19.20
2022-08-02T03:36:53.993Z,19.20
2022-08-02T03:39:20.468Z,19.70
2022-08-02T03:41:46.962Z,19.20
2022-08-02T03:44:13.398Z,19.20
2022-08-02T03:46:39.861Z,19.10
2022-08-02T03:49:06.380Z,19.10
2022-08-02T03:51:32.875Z,19.10
2022-08-02T03:53:59.352Z,19.10
2022-08-02T03:56:25.796Z,19.10
2022-08-02T03:58:52.261Z,19.10
2022-08-02T04:01:18.751Z,19.20
2022-08-02T04:03:45.235Z,19.70
2022-08-02T04:06:11.667Z,19.10
2022-08-02T04:08:38.970Z,19.10
2022-08-02T04:11:05.583Z,19.10
2022-08-02T04:13:35.627Z,19.10
2022-08-02T04:16:02.485Z,19.10
2022-08-02T04:18:28.950Z,19.10
2022-08-02T04:20:55.395Z,19.10
2022-08-02T04:23:21.895Z,19.10
2022-08-02T04:25:48.366Z,19.00
2022-08-02T04:28:18.373Z,19.00
2022-08-02T04:30:45.038Z,19.10
2022-08-02T04:33:11.514Z,19.10
2022-08-02T04:35:37.945Z,19.00
2022-08-02T04:38:08.110Z,19.00
2022-08-02T04:40:36.503Z,19.00
2022-08-02T04:43:02.953Z,19.00
2022-08-02T04:45:29.386Z,19.00
2022-08-02T04:48:04.634Z,19.10
2022-08-02T04:50:31.974Z,19.00
2022-08-02T04:52:58.426Z,19.10
2022-08-02T04:55:24.864Z,19.00
2022-08-02T04:57:53.093Z,19.00
2022-08-02T05:00:19.791Z,19.00
2022-08-02T05:02:46.346Z,19.00
2022-08-02T05:05:12.805Z,19.00
2022-08-02T05:07:39.236Z,18.90
2022-08-02T05:10:05.706Z,18.80
2022-08-02T05:12:32.147Z,18.90
2022-08-02T05:14:58.627Z,18.80
2022-08-02T05:17:25.111Z,18.90
2022-08-02T05:19:51.594Z,18.90
2022-08-02T05:22:18.065Z,18.90
2022-08-02T05:24:44.510Z,18.90
2022-08-02T05:27:16.902Z,18.90
2022-08-02T05:29:53.153Z,18.90
2022-08-02T05:32:20.672Z,18.80
2022-08-02T05:34:50.195Z,18.80
2022-08-02T05:37:16.659Z,18.80
2022-08-02T05:39:55.371Z,19.20
2022-08-02T05:42:22.827Z,18.80
2022-08-02T05:44:49.277Z,18.80
2022-08-02T05:47:15.724Z,18.80
2022-08-02T05:49:42.180Z,18.80
2022-08-02T05:52:09.047Z,18.80
2022-08-02T05:54:36.932Z,18.90
2022-08-02T05:57:05.815Z,19.00
2022-08-02T05:59:32.316Z,19.00
2022-08-02T06:01:58.812Z,19.10
2022-08-02T06:04:25.321Z,19.10
2022-08-02T06:06:51.782Z,19.30
2022-08-02T06:09:21.041Z,19.10
2022-08-02T06:12:00.729Z,19.10
2022-08-02T06:14:30.615Z,19.20
2022-08-02T06:16:57.401Z,18.70
2022-08-02T06:19:23.913Z,19.60
2022-08-02T06:22:31.882Z,19.20
2022-08-02T06:24:36.825Z,19.20
2022-08-02T06:27:03.493Z,19.20
2022-08-02T06:29:29.938Z,19.30
2022-08-02T06:31:56.382Z,19.30
2022-08-02T06:34:22.826Z,19.30
2022-08-02T06:36:49.276Z,19.30
2022-08-02T06:39:15.725Z,19.30
2022-08-02T06:41:42.172Z,19.30
2022-08-02T06:44:41.991Z,19.30
2022-08-02T06:47:10.872Z,19.30
2022-08-02T06:49:51.988Z,19.30
2022-08-02T06:52:23.221Z,19.40
2022-08-02T06:54:53.475Z,19.30
2022-08-02T06:57:19.960Z,19.30
2022-08-02T06:59:46.412Z,19.40
2022-08-02T07:02:13.157Z,19.90
2022-08-02T07:04:39.863Z,19.40
2022-08-02T07:07:06.316Z,19.90
2022-08-02T07:09:32.808Z,19.40
2022-08-02T07:11:59.292Z,19.40
2022-08-02T07:14:25.731Z,19.40
2022-08-02T07:16:52.246Z,19.50
2022-08-02T07:19:18.675Z,19.40
2022-08-02T07:21:57.592Z,18.90
2022-08-02T07:24:27.149Z,19.40
2022-08-02T07:27:10.405Z,19.60
2022-08-02T07:29:45.467Z,19.40
2022-08-02T07:32:13.962Z,19.40
2022-08-02T07:34:40.741Z,19.50
2022-08-02T07:37:10.519Z,19.40
2022-08-02T07:39:54.384Z,19.40
2022-08-02T07:42:20.870Z,20.10
2022-08-02T07:44:49.277Z,19.50
2022-08-02T07:47:15.860Z,19.50
2022-08-02T07:49:42.298Z,19.50
2022-08-02T07:52:09.164Z,19.50
2022-08-02T07:54:35.745Z,19.50
2022-08-02T07:57:02.208Z,19.50
2022-08-02T07:59:28.748Z,19.50
2022-08-02T08:01:55.233Z,19.50
2022-08-02T08:04:21.748Z,19.50
2022-08-02T08:06:48.209Z,19.50
2022-08-02T08:09:14.652Z,19.50
2022-08-02T08:11:41.105Z,19.50
2022-08-02T08:14:07.566Z,19.40
2022-08-02T08:16:34.055Z,19.50
2022-08-02T08:19:00.536Z,19.50
2022-08-02T08:21:26.996Z,19.50
2022-08-02T08:23:53.491Z,19.60
2022-08-02T08:26:19.935Z,19.50
2022-08-02T08:28:46.402Z,19.50
2022-08-02T08:31:12.905Z,19.80
2022-08-02T08:33:39.390Z,19.50
2022-08-02T08:36:05.826Z,19.50
2022-08-02T08:38:32.287Z,19.50
2022-08-02T08:40:58.716Z,19.50
2022-08-02T08:43:25.197Z,19.50
2022-08-02T08:45:55.543Z,19.50
2022-08-02T08:48:30.451Z,19.60
2022-08-02T08:50:57.872Z,19.60
2022-08-02T08:53:24.352Z,19.50
2022-08-02T08:56:03.475Z,19.50
2022-08-02T08:58:29.953Z,19.60
2022-08-02T09:00:56.428Z,19.60
2022-08-02T09:03:23.014Z,19.60
2022-08-02T09:05:49.482Z,19.60
2022-08-02T09:08:17.123Z,19.80
2022-08-02T09:10:43.705Z,19.60
2022-08-02T09:13:37.765Z,19.90
2022-08-02T09:15:57.173Z,19.60
2022-08-02T09:18:23.630Z,19.50
2022-08-02T09:20:50.100Z,19.60
2022-08-02T09:23:16.593Z,19.60
2022-08-02T09:25:43.076Z,19.60
2022-08-02T09:28:26.221Z,19.60
2022-08-02T09:30:52.664Z,19.60
2022-08-02T09:33:19.122Z,19.60
2022-08-02T09:36:07.147Z,19.60
2022-08-02T09:38:31.997Z,19.60
2022-08-02T09:40:58.429Z,19.60
2022-08-02T09:43:24.900Z,19.60
2022-08-02T09:45:51.327Z,19.60
2022-08-02T09:48:17.767Z,19.60
2022-08-02T09:50:44.410Z,19.60
2022-08-02T09:53:10.861Z,19.60
2022-08-02T09:55:37.308Z,19.60
2022-08-02T09:58:03.744Z,19.60
2022-08-02T10:00:50.663Z,19.60
2022-08-02T10:03:22.041Z,19.60
2022-08-02T10:05:54.099Z,19.60
2022-08-02T10:08:22.819Z,19.60
2022-08-02T10:10:49.294Z,19.60
2022-08-02T10:13:21.641Z,19.60
2022-08-02T10:15:50.284Z,19.40
2022-08-02T10:18:37.086Z,19.60
2022-08-02T10:21:03.631Z,19.60
2022-08-02T10:23:30.059Z,19.60
2022-08-02T10:26:00.254Z,19.60
2022-08-02T10:28:26.924Z,19.60
2022-08-02T10:30:53.380Z,19.60
2022-08-02T10:33:19.849Z,19.50
2022-08-02T10:35:46.354Z,19.60
2022-08-02T10:38:12.785Z,19.60
2022-08-02T10:40:39.218Z,19.60
2022-08-02T10:43:11.061Z,19.60
2022-08-02T10:45:37.553Z,19.60
2022-08-02T10:48:04.000Z,19.60
2022-08-02T10:50:30.458Z,19.60
2022-08-02T10:52:56.915Z,19.60
2022-08-02T10:55:23.353Z,19.60
2022-08-02T10:57:49.881Z,19.60
2022-08-02T11:00:19.440Z,19.60
2022-08-02T11:02:46.006Z,19.60
2022-08-02T11:05:12.462Z,19.70
2022-08-02T11:07:38.945Z,20.30
2022-08-02T11:10:05.401Z,19.60
2022-08-02T11:12:33.143Z,19.60
2022-08-02T11:14:59.599Z,19.60
2022-08-02T11:17:26.065Z,19.60
2022-08-02T11:19:52.517Z,19.60
2022-08-02T11:22:23.672Z,19.60
2022-08-02T11:24:52.065Z,19.60
2022-08-02T11:27:18.699Z,19.60
2022-08-02T11:29:48.498Z,19.60
2022-08-02T11:32:15.162Z,19.70
2022-08-02T11:34:41.906Z,19.60
2022-08-02T11:37:08.361Z,19.60
2022-08-02T11:39:34.799Z,19.60
2022-08-02T11:42:01.232Z,19.60
2022-08-02T11:44:27.745Z,19.60
2022-08-02T11:46:54.213Z,19.70
2022-08-02T11:49:20.774Z,19.60
2022-08-02T11:51:50.121Z,19.60
2022-08-02T11:54:18.775Z,19.60
2022-08-02T11:56:45.216Z,19.70
2022-08-02T11:59:14.664Z,19.70
2022-08-02T12:01:45.880Z,19.70
2022-08-02T12:04:12.529Z,19.70
2022-08-02T12:06:38.962Z,19.70
2022-08-02T12:09:05.401Z,19.70
2022-08-02T12:11:44.330Z,19.70
2022-08-02T12:14:10.786Z,19.30
2022-08-02T12:16:37.219Z,19.70
2022-08-02T12:19:03.669Z,19.70
2022-08-02T12:21:30.134Z,19.70
2022-08-02T12:23:59.375Z,19.70
2022-08-02T12:26:27.190Z,19.70
2022-08-02T12:28:53.653Z,19.20
2022-08-02T12:31:20.093Z,19.70
2022-08-02T12:33:46.562Z,19.70
2022-08-02T12:36:13.010Z,19.70
2022-08-02T12:38:40.302Z,19.60
2022-08-02T12:41:31.147Z,19.70
2022-08-02T12:43:53.272Z,19.70
2022-08-02T12:46:19.723Z,19.70
2022-08-02T12:49:08.415Z,19.70
2022-08-02T12:51:56.312Z,19.70
2022-08-02T12:54:19.117Z,19.70
2022-08-02T12:56:45.556Z,19.70
2022-08-02T12:59:12.031Z,19.70
2022-08-02T13:01:38.566Z,19.70
2022-08-02T13:04:09.753Z,19.70
2022-08-02T13:06:44.080Z,19.70
2022-08-02T13:09:11.239Z,19.70
2022-08-02T13:11:37.701Z,19.70
2022-08-02T13:14:09.569Z,19.70
2022-08-02T13:16:36.018Z,19.70
2022-08-02T13:19:02.525Z,19.70
2022-08-02T13:21:40.927Z,19.70
2022-08-02T13:24:33.177Z,19.70
2022-08-02T13:27:07.851Z,19.70
2022-08-02T13:29:35.324Z,19.70
2022-08-02T13:32:01.759Z,19.70
2022-08-02T13:34:28.206Z,19.70
2022-08-02T13:36:54.645Z,19.70
2022-08-02T13:39:21.116Z,19.70
2022-08-02T13:41:47.560Z,19.70
2022-08-02T13:44:14.045Z,19.70
2022-08-02T13:46:44.934Z,19.80
2022-08-02T13:49:16.309Z,19.70
2022-08-02T13:51:45.249Z,19.70
2022-08-02T13:54:11.753Z,19.70
2022-08-02T13:56:38.186Z,19.70
2022-08-02T13:59:54.251Z,19.60
2022-08-02T14:01:51.083Z,19.70
2022-08-02T14:04:17.589Z,19.70
2022-08-02T14:06:44.049Z,19.70
2022-08-02T14:09:15.708Z,19.70
2022-08-02T14:11:43.668Z,19.20
2022-08-02T14:14:16.333Z,19.80
2022-08-02T14:16:43.252Z,19.70
2022-08-02T14:19:15.442Z,19.70
2022-08-02T14:21:47.044Z,19.70
2022-08-02T14:24:14.215Z,19.70
2022-08-02T14:26:40.679Z,19.70
2022-08-02T14:29:07.195Z,19.70
2022-08-02T14:31:33.625Z,19.70
2022-08-02T14:34:00.146Z,19.70
2022-08-02T14:36:27.885Z,19.70
2022-08-02T14:38:54.625Z,19.70
2022-08-02T14:41:21.209Z,19.70
2022-08-02T14:43:47.643Z,19.90
2022-08-02T14:46:14.095Z,19.70
2022-08-02T14:48:40.581Z,19.70
2022-08-02T14:51:07.085Z,19.70
2022-08-02T14:53:37.732Z,19.70
2022-08-02T14:56:15.465Z,19.70
2022-08-02T14:58:41.910Z,19.70
2022-08-02T15:01:08.438Z,19.70
2022-08-02T15:03:43.733Z,19.70
2022-08-02T15:06:10.491Z,19.70
2022-08-02T15:08:36.944Z,19.80
2022-08-02T15:11:03.437Z,19.70
2022-08-02T15:13:29.920Z,19.80
2022-08-02T15:15:56.564Z,20.00
2022-08-02T15:18:23.021Z,19.80
2022-08-02T15:20:57.686Z,19.80
2022-08-02T15:23:24.305Z,19.80
2022-08-02T15:26:01.399Z,19.80
2022-08-02T15:28:27.835Z,19.80
2022-08-02T15:30:54.284Z,19.80
2022-08-02T15:33:20.730Z,19.80
2022-08-02T15:35:47.177Z,19.80
2022-08-02T15:38:13.635Z,19.80
2022-08-02T15:40:40.144Z,19.80
2022-08-02T15:43:06.579Z,19.80
2022-08-02T15:45:33.025Z,19.80
2022-08-02T15:47:59.455Z,19.80
2022-08-02T15:50:25.927Z,19.80
2022-08-02T15:52:52.484Z,19.80
2022-08-02T15:55:19.007Z,19.80
2022-08-02T15:57:45.444Z,19.80
2022-08-02T16:00:17.848Z,19.80
2022-08-02T16:02:45.133Z,19.80
2022-08-02T16:05:13.726Z,19.80
2022-08-02T16:07:41.230Z,19.80
2022-08-02T16:10:07.783Z,19.80
2022-08-02T16:12:34.222Z,19.80
2022-08-02T16:15:00.688Z,19.80
2022-08-02T16:17:53.671Z,19.80
2022-08-02T16:20:13.728Z,19.80
2022-08-02T16:22:40.195Z,19.80
2022-08-02T16:25:06.650Z,19.70
2022-08-02T16:27:33.090Z,19.80
2022-08-02T16:30:19.576Z,19.80
2022-08-02T16:32:46.029Z,19.80
2022-08-02T16:35:12.486Z,19.80
2022-08-02T16:37:50.493Z,19.80
2022-08-02T16:40:19.093Z,19.80
2022-08-02T16:42:48.853Z,19.80
2022-08-02T16:45:17.257Z,19.80
2022-08-02T16:47:57.433Z,19.80
2022-08-02T16:50:27.167Z,19.80
2022-08-02T16:52:54.897Z,19.80
2022-08-02T16:55:21.958Z,19.80
2022-08-02T16:57:50.164Z,21.60
2022-08-02T17:00:16.950Z,19.80
2022-08-02T17:02:43.936Z,21.10
2022-08-02T17:08:10.399Z,19.80
2022-08-02T17:10:43.958Z,19.80
2022-08-02T17:13:11.229Z,19.80
2022-08-02T17:16:00.979Z,19.80
2022-08-02T17:18:26.506Z,20.00
2022-08-02T17:20:53.261Z,19.90
2022-08-02T17:23:19.939Z,19.80
2022-08-02T17:25:52.303Z,20.80
2022-08-02T17:28:19.233Z,19.80
2022-08-02T17:30:45.740Z,19.80
2022-08-02T17:33:12.534Z,19.80
2022-08-02T17:35:40.064Z,20.20
2022-08-02T17:38:10.450Z,19.70
2022-08-02T17:40:36.938Z,19.80
2022-08-02T17:43:03.431Z,19.80
2022-08-02T17:46:00.374Z,19.80
2022-08-02T17:48:29.265Z,19.60
2022-08-02T17:51:03.322Z,19.80
2022-08-02T17:53:36.257Z,19.80
2022-08-02T17:56:03.016Z,20.30
2022-08-02T17:58:33.477Z,19.80
2022-08-02T18:01:00.102Z,19.80
2022-08-02T18:03:27.967Z,19.50
2022-08-02T18:05:56.988Z,19.90
2022-08-02T18:08:23.895Z,19.80
2022-08-02T18:10:50.641Z,19.80
2022-08-02T18:13:20.837Z,19.80
2022-08-02T18:15:47.462Z,19.80
2022-08-02T18:18:29.352Z,19.80
2022-08-02T18:21:15.854Z,19.80
2022-08-02T18:23:48.820Z,19.90
2022-08-02T18:26:16.728Z,20.20
2022-08-02T18:28:43.231Z,20.40
2022-08-02T18:31:22.313Z,19.80
2022-08-02T18:33:58.018Z,19.80
2022-08-02T18:36:27.685Z,19.90
2022-08-02T18:38:54.126Z,19.80
2022-08-02T18:41:21.349Z,19.80
2022-08-02T18:43:48.068Z,19.80
2022-08-02T18:46:15.861Z,19.80
2022-08-02T18:48:44.245Z,19.80
2022-08-02T18:51:12.884Z,19.80
2022-08-02T18:53:41.607Z,19.80
2022-08-02T18:56:09.137Z,19.80
2022-08-02T18:58:35.603Z,19.80
2022-08-02T19:01:05.217Z,19.90
2022-08-02T19:03:41.407Z,19.80
2022-08-02T19:06:15.798Z,19.80
2022-08-02T19:08:46.292Z,19.80
2022-08-02T19:11:35.241Z,19.80
2022-08-02T19:14:01.891Z,19.80
2022-08-02T19:16:37.097Z,19.90
2022-08-02T19:19:04.537Z,19.80
2022-08-02T19:24:17.466Z,19.80
2022-08-02T19:26:52.088Z,19.80
2022-08-02T19:29:19.124Z,19.80
2022-08-02T19:32:05.562Z,19.80
2022-08-02T19:34:52.005Z,20.70
2022-08-02T19:37:18.591Z,19.90
2022-08-02T19:39:45.927Z,19.80
2022-08-02T19:42:12.742Z,19.80
2022-08-02T19:44:44.598Z,19.80
2022-08-02T19:47:12.070Z,19.90
2022-08-02T19:49:40.073Z,19.80
2022-08-02T19:52:20.591Z,19.90
2022-08-02T19:54:55.944Z,19.80
2022-08-02T19:57:23.215Z,19.80
2022-08-02T19:59:51.510Z,19.80
2022-08-02T20:02:18.722Z,19.90
2022-08-02T20:04:49.938Z,19.80
2022-08-02T20:07:56.255Z,19.80
2022-08-02T20:10:11.345Z,19.80
2022-08-02T20:12:38.056Z,19.90
2022-08-02T20:15:07.921Z,19.80
2022-08-02T20:17:47.312Z,19.90
2022-08-02T20:20:14.242Z,19.90
2022-08-02T20:22:40.727Z,19.90
2022-08-02T20:25:10.199Z,19.90
2022-08-02T20:27:51.194Z,19.90
2022-08-02T20:30:18.098Z,19.90
2022-08-02T20:32:52.571Z,19.90
2022-08-02T20:35:19.527Z,19.90
2022-08-02T20:38:01.181Z,19.90
2022-08-02T20:40:28.776Z,19.90
2022-08-02T20:42:55.231Z,19.90
2022-08-02T20:45:21.841Z,19.90
2022-08-02T20:47:49.827Z,19.90
2022-08-02T20:50:17.876Z,19.90
2022-08-02T20:52:44.450Z,19.90
2022-08-02T20:55:17.027Z,19.90
2022-08-02T20:58:00.111Z,19.90
2022-08-02T21:00:27.203Z,19.90
2022-08-02T21:02:53.653Z,20.40
2022-08-02T21:05:20.095Z,19.90
2022-08-02T21:07:54.940Z,19.90
2022-08-02T21:10:21.487Z,19.90
2022-08-02T21:12:50.593Z,19.90
2022-08-02T21:15:17.051Z,19.90
2022-08-02T21:17:51.235Z,19.90
2022-08-02T21:20:27.506Z,19.90
2022-08-02T21:22:55.849Z,19.90
2022-08-02T21:25:23.908Z,19.90
2022-08-02T21:28:08.889Z,19.90
2022-08-02T21:30:44.012Z,19.90
2022-08-02T21:33:18.184Z,19.90
2022-08-02T21:35:50.206Z,19.90
2022-08-02T21:38:35.240Z,19.90
2022-08-02T21:41:03.068Z,19.90
2022-08-02T21:43:35.290Z,19.90
2022-08-02T21:46:05.681Z,19.90
2022-08-02T21:48:32.376Z,19.90
2022-08-02T21:50:58.802Z,19.90
2022-08-02T21:53:42.095Z,19.90
2022-08-02T21:56:09.911Z,19.90
2022-08-02T21:58:36.388Z,20.00
2022-08-02T22:01:02.826Z,19.90
2022-08-02T22:03:29.605Z,19.90
2022-08-02T22:05:56.136Z,19.90
2022-08-02T22:08:22.589Z,19.90
2022-08-02T22:10:50.030Z,19.90
2022-08-02T22:13:17.899Z,19.90
2022-08-02T22:15:46.696Z,19.90
2022-08-02T22:18:17.089Z,19.90
2022-08-02T22:20:55.955Z,19.90
2022-08-02T22:23:38.853Z,20.00
2022-08-02T22:26:09.389Z,19.90
2022-08-02T22:28:51.070Z,19.90
2022-08-02T22:31:24.845Z,19.90
2022-08-02T22:34:11.836Z,20.60
2022-08-02T22:36:53.212Z,19.90
2022-08-02T22:39:19.838Z,19.90
2022-08-02T22:42:05.211Z,19.90
2022-08-02T22:44:32.704Z,19.90
2022-08-02T22:49:53.127Z,19.90
2022-08-02T22:52:22.524Z,19.90
2022-08-02T22:54:50.797Z,19.90
2022-08-02T22:57:17.550Z,19.90
2022-08-02T22:58:47.624Z,19.80
2022-08-02T22:58:48.874Z,19.80
2022-08-02T22:59:57.433Z,19.90
2022-08-02T23:02:25.167Z,19.90
2022-08-02T23:04:51.684Z,19.90
2022-08-02T23:07:18.197Z,20.00
2022-08-02T23:09:44.647Z,19.90
2022-08-02T23:12:11.110Z,19.90
2022-08-02T23:14:37.619Z,19.90
2022-08-02T23:17:04.074Z,19.90
2022-08-02T23:19:30.517Z,19.90
2022-08-02T23:22:01.673Z,20.00
2022-08-02T23:24:29.360Z,19.90
2022-08-02T23:26:55.793Z,19.90
2022-08-02T23:29:22.262Z,20.00
2022-08-02T23:31:48.761Z,19.90
2022-08-02T23:34:15.882Z,20.70
2022-08-02T23:36:42.335Z,19.90
2022-08-02T23:39:08.852Z,19.90
2022-08-02T23:41:35.342Z,19.90
2022-08-02T23:44:14.113Z,19.90
2022-08-02T23:46:41.381Z,20.00
2022-08-02T23:49:07.836Z,19.90
2022-08-02T23:51:34.454Z,20.00
2022-08-02T23:54:00.970Z,20.00
2022-08-02T23:56:27.415Z,20.00
2022-08-02T23:58:54.001Z,20.00
